createdAt,value
2023-03-01T00:00:48.809Z,11.43
2023-03-01T00:03:15.059Z,11.67
2023-03-01T00:05:47.666Z,11.07
2023-03-01T00:08:13.987Z,10.93
2023-03-01T00:10:40.205Z,11.23
2023-03-01T00:13:06.852Z,11.70
2023-03-01T00:15:33.073Z,11.00
2023-03-01T00:17:59.318Z,10.80
2023-03-01T00:20:25.573Z,11.37
2023-03-01T00:22:51.781Z,11.43
2023-03-01T00:25:18.011Z,9.87
2023-03-01T00:27:44.302Z,10.90
2023-03-01T00:30:11.013Z,10.73
2023-03-01T00:32:37.233Z,10.43
2023-03-01T00:35:03.573Z,9.97
2023-03-01T00:37:29.838Z,10.50
2023-03-01T00:39:56.054Z,10.50
2023-03-01T00:42:23.040Z,10.17
2023-03-01T00:44:49.253Z,10.37
2023-03-01T00:47:15.496Z,10.73
2023-03-01T00:49:41.720Z,10.50
2023-03-01T00:52:07.945Z,10.87
2023-03-01T00:54:34.172Z,10.73
2023-03-01T00:57:00.380Z,11.73
2023-03-01T00:59:26.627Z,11.60
2023-03-01T01:01:52.895Z,11.43
2023-03-01T01:04:19.242Z,10.07
2023-03-01T01:06:47.084Z,11.00
2023-03-01T01:09:18.048Z,11.30
2023-03-01T01:11:45.603Z,11.00
2023-03-01T01:14:11.892Z,11.00
2023-03-01T01:16:38.110Z,10.93
2023-03-01T01:19:04.688Z,10.60
2023-03-01T01:21:31.444Z,11.03
2023-03-01T01:23:58.353Z,10.90
2023-03-01T01:26:25.915Z,11.40
2023-03-01T01:28:52.345Z,11.60
2023-03-01T01:31:19.417Z,12.13
2023-03-01T01:33:45.899Z,11.60
2023-03-01T01:36:12.311Z,11.73
2023-03-01T01:38:39.061Z,11.47
2023-03-01T01:41:06.402Z,11.20
2023-03-01T01:43:36.921Z,11.83
2023-03-01T01:46:13.986Z,11.27
2023-03-01T01:48:42.742Z,11.60
2023-03-01T01:51:14.451Z,11.17
2023-03-01T01:53:41.056Z,11.00
2023-03-01T01:56:08.952Z,10.90
2023-03-01T01:58:35.297Z,11.63
2023-03-01T02:01:02.590Z,10.87
2023-03-01T02:03:34.284Z,11.53
2023-03-01T02:06:20.149Z,11.37
2023-03-01T02:08:47.863Z,10.83
2023-03-01T02:11:15.466Z,10.43
2023-03-01T02:13:42.188Z,10.87
2023-03-01T02:16:12.619Z,10.57
2023-03-01T02:18:39.577Z,10.40
2023-03-01T02:21:05.839Z,10.77
2023-03-01T02:23:32.286Z,10.20
2023-03-01T02:26:01.537Z,11.83
2023-03-01T02:28:30.789Z,10.87
2023-03-01T02:31:15.889Z,10.73
2023-03-01T02:33:43.160Z,10.70
2023-03-01T02:36:12.382Z,10.57
2023-03-01T02:38:38.671Z,11.13
2023-03-01T02:41:05.544Z,9.63
2023-03-01T02:43:33.263Z,10.57
2023-03-01T02:46:02.781Z,10.43
2023-03-01T02:48:29.002Z,10.27
2023-03-01T02:51:07.874Z,11.00
2023-03-01T02:53:39.620Z,10.70
2023-03-01T02:56:05.931Z,10.90
2023-03-01T02:58:32.142Z,11.20
2023-03-01T03:00:58.465Z,11.07
2023-03-01T03:03:24.718Z,11.53
2023-03-01T03:05:50.939Z,11.43
2023-03-01T03:08:24.785Z,10.73
2023-03-01T03:10:51.331Z,11.23
2023-03-01T03:13:18.062Z,10.53
2023-03-01T03:15:44.559Z,10.77
2023-03-01T03:18:12.430Z,10.23
2023-03-01T03:20:40.381Z,11.07
2023-03-01T03:23:06.607Z,10.87
2023-03-01T03:25:32.896Z,10.77
2023-03-01T03:27:59.528Z,10.80
2023-03-01T03:30:27.135Z,11.07
2023-03-01T03:32:53.534Z,11.27
2023-03-01T03:35:27.731Z,11.50
2023-03-01T03:38:02.916Z,11.10
2023-03-01T03:40:34.068Z,11.10
2023-03-01T03:43:00.333Z,12.30
2023-03-01T03:45:26.633Z,12.83
2023-03-01T03:47:53.061Z,12.03
2023-03-01T03:50:19.768Z,10.67
2023-03-01T03:52:46.099Z,11.17
2023-03-01T03:55:13.469Z,11.30
2023-03-01T03:57:40.537Z,11.30
2023-03-01T04:00:13.527Z,11.20
2023-03-01T04:02:43.711Z,10.87
2023-03-01T04:05:11.000Z,10.00
2023-03-01T04:07:37.693Z,11.07
2023-03-01T04:10:04.546Z,10.23
2023-03-01T04:12:30.913Z,10.37
2023-03-01T04:14:57.149Z,10.87
2023-03-01T04:17:23.353Z,11.03
2023-03-01T04:19:49.746Z,10.80
2023-03-01T04:22:18.272Z,11.10
2023-03-01T04:24:47.490Z,10.73
2023-03-01T04:27:13.741Z,10.53
2023-03-01T04:29:39.985Z,11.00
2023-03-01T04:32:06.385Z,11.33
2023-03-01T04:34:32.709Z,11.13
2023-03-01T04:36:58.981Z,11.03
2023-03-01T04:39:25.224Z,10.70
2023-03-01T04:41:51.493Z,10.77
2023-03-01T04:44:17.737Z,11.43
2023-03-01T04:46:43.993Z,11.30
2023-03-01T04:49:10.221Z,11.10
2023-03-01T04:51:36.459Z,11.23
2023-03-01T04:54:02.732Z,11.17
2023-03-01T04:56:29.243Z,11.10
2023-03-01T04:58:55.767Z,11.23
2023-03-01T05:01:22.562Z,10.53
2023-03-01T05:03:50.056Z,11.53
2023-03-01T05:06:16.744Z,11.27
2023-03-01T05:08:43.412Z,12.53
2023-03-01T05:11:09.975Z,13.90
2023-03-01T05:13:37.068Z,12.87
2023-03-01T05:16:04.040Z,11.53
2023-03-01T05:18:31.406Z,11.90
2023-03-01T05:21:02.518Z,12.07
2023-03-01T05:23:28.829Z,12.27
2023-03-01T05:25:55.910Z,11.53
2023-03-01T05:28:22.141Z,11.80
2023-03-01T05:30:48.441Z,11.43
2023-03-01T05:33:14.889Z,11.40
2023-03-01T05:35:43.143Z,11.87
2023-03-01T05:38:10.149Z,11.63
2023-03-01T05:40:36.450Z,12.03
2023-03-01T05:43:06.084Z,12.53
2023-03-01T05:45:33.366Z,11.63
2023-03-01T05:47:59.854Z,12.40
2023-03-01T05:50:27.611Z,11.77
2023-03-01T05:52:58.432Z,11.30
2023-03-01T05:55:24.775Z,11.00
2023-03-01T05:57:52.071Z,11.97
2023-03-01T06:00:19.628Z,12.47
2023-03-01T06:02:45.990Z,12.37
2023-03-01T06:05:13.208Z,11.77
2023-03-01T06:07:40.187Z,11.03
2023-03-01T06:10:07.006Z,11.73
2023-03-01T06:12:34.127Z,12.07
2023-03-01T06:15:00.553Z,12.60
2023-03-01T06:17:27.055Z,12.20
2023-03-01T06:19:53.293Z,12.73
2023-03-01T06:22:19.507Z,12.00
2023-03-01T06:24:45.735Z,11.43
2023-03-01T06:27:12.013Z,12.20
2023-03-01T06:29:38.243Z,12.00
2023-03-01T06:32:04.760Z,11.77
2023-03-01T06:34:31.052Z,11.40
2023-03-01T06:36:57.276Z,12.43
2023-03-01T06:39:23.571Z,12.73
2023-03-01T06:41:49.792Z,13.07
2023-03-01T06:44:16.076Z,13.70
2023-03-01T06:46:42.321Z,12.97
2023-03-01T06:49:10.384Z,13.20
2023-03-01T06:51:37.736Z,13.20
2023-03-01T06:54:05.010Z,12.57
2023-03-01T06:56:32.076Z,13.83
2023-03-01T06:58:58.535Z,14.17
2023-03-01T07:01:24.839Z,12.97
2023-03-01T07:03:51.231Z,13.17
2023-03-01T07:06:18.517Z,13.90
2023-03-01T07:08:44.787Z,14.57
2023-03-01T07:11:11.005Z,13.67
2023-03-01T07:13:37.224Z,13.47
2023-03-01T07:16:03.524Z,15.37
2023-03-01T07:18:29.787Z,14.60
2023-03-01T07:20:56.167Z,14.03
2023-03-01T07:23:22.386Z,14.87
2023-03-01T07:25:52.553Z,14.33
2023-03-01T07:28:18.803Z,14.33
2023-03-01T07:30:45.690Z,14.77
2023-03-01T07:33:11.984Z,14.17
2023-03-01T07:35:38.325Z,14.33
2023-03-01T07:38:04.632Z,15.20
2023-03-01T07:40:30.851Z,15.27
2023-03-01T07:42:57.635Z,15.80
2023-03-01T07:45:23.910Z,15.60
2023-03-01T07:47:51.184Z,15.17
2023-03-01T07:50:17.562Z,14.97
2023-03-01T07:52:45.931Z,16.03
2023-03-01T07:55:12.265Z,14.40
2023-03-01T07:57:38.960Z,14.50
2023-03-01T08:00:05.659Z,14.37
2023-03-01T08:02:31.997Z,14.17
2023-03-01T08:04:58.325Z,13.80
2023-03-01T08:07:24.677Z,12.70
2023-03-01T08:09:50.903Z,11.67
2023-03-01T08:12:20.290Z,12.77
2023-03-01T08:14:46.810Z,12.17
2023-03-01T08:17:14.752Z,11.03
2023-03-01T08:19:40.989Z,11.97
2023-03-01T08:22:07.219Z,12.10
2023-03-01T08:24:33.507Z,11.73
2023-03-01T08:26:59.767Z,10.57
2023-03-01T08:29:26.132Z,10.00
2023-03-01T08:31:52.448Z,10.07
2023-03-01T08:34:19.175Z,10.17
2023-03-01T08:36:46.430Z,10.20
2023-03-01T08:39:17.228Z,10.67
2023-03-01T08:41:43.579Z,9.67
2023-03-01T08:44:11.126Z,10.13
2023-03-01T08:46:38.680Z,8.73
2023-03-01T08:49:06.363Z,9.23
2023-03-01T08:51:37.423Z,7.13
2023-03-01T08:54:04.833Z,6.50
2023-03-01T08:56:31.422Z,7.17
2023-03-01T08:58:57.972Z,6.43
2023-03-01T09:01:24.215Z,7.30
2023-03-01T09:03:50.480Z,6.87
2023-03-01T09:06:16.843Z,6.30
2023-03-01T09:08:44.123Z,6.10
2023-03-01T09:11:11.326Z,5.40
2023-03-01T09:13:38.018Z,6.13
2023-03-01T09:16:05.116Z,5.90
2023-03-01T09:18:31.612Z,5.70
2023-03-01T09:21:08.035Z,5.10
2023-03-01T09:23:41.689Z,4.87
2023-03-01T09:26:09.921Z,5.50
2023-03-01T09:28:36.827Z,4.30
2023-03-01T09:31:03.822Z,4.20
2023-03-01T09:33:31.082Z,3.87
2023-03-01T09:35:58.550Z,4.30
2023-03-01T09:38:25.976Z,3.83
2023-03-01T09:40:53.692Z,4.63
2023-03-01T09:43:24.480Z,4.67
2023-03-01T09:45:51.786Z,4.30
2023-03-01T09:48:19.796Z,4.80
2023-03-01T09:50:47.677Z,4.03
2023-03-01T09:53:18.820Z,4.07
2023-03-01T09:56:00.298Z,4.10
2023-03-01T09:58:37.989Z,4.60
2023-03-01T10:01:11.997Z,4.77
2023-03-01T10:03:46.245Z,4.40
2023-03-01T10:06:24.098Z,4.57
2023-03-01T10:09:13.352Z,4.80
2023-03-01T10:11:42.421Z,4.90
2023-03-01T10:14:27.276Z,4.67
2023-03-01T10:16:58.890Z,4.33
2023-03-01T10:19:45.376Z,4.87
2023-03-01T10:22:17.711Z,4.70
2023-03-01T10:24:44.315Z,4.30
2023-03-01T10:27:16.018Z,4.30
2023-03-01T10:30:05.081Z,4.43
2023-03-01T10:32:31.935Z,4.43
2023-03-01T10:34:58.275Z,4.70
2023-03-01T10:37:28.063Z,4.30
2023-03-01T10:40:11.382Z,4.67
2023-03-01T10:42:47.664Z,4.03
2023-03-01T10:45:25.935Z,4.80
2023-03-01T10:48:14.311Z,4.47
2023-03-01T10:50:45.377Z,4.63
2023-03-01T10:53:23.431Z,4.73
2023-03-01T10:55:57.048Z,4.43
2023-03-01T10:58:23.641Z,4.80
2023-03-01T11:00:55.044Z,4.87
2023-03-01T11:03:23.248Z,4.97
2023-03-01T11:06:00.391Z,4.37
2023-03-01T11:08:33.109Z,4.17
2023-03-01T11:11:11.550Z,5.10
2023-03-01T11:13:40.090Z,5.47
2023-03-01T11:16:13.093Z,5.17
2023-03-01T11:18:47.725Z,5.33
2023-03-01T11:21:15.746Z,5.77
2023-03-01T11:23:42.959Z,6.23
2023-03-01T11:26:11.596Z,5.67
2023-03-01T11:28:40.634Z,6.03
2023-03-01T11:31:14.969Z,6.00
2023-03-01T11:33:59.926Z,6.30
2023-03-01T11:36:36.791Z,6.30
2023-03-01T11:39:18.426Z,5.67
2023-03-01T11:41:47.880Z,6.17
2023-03-01T11:44:26.440Z,6.73
2023-03-01T11:47:05.005Z,6.37
2023-03-01T11:49:39.456Z,6.07
2023-03-01T11:52:15.052Z,6.47
2023-03-01T11:55:01.667Z,5.93
2023-03-01T11:57:41.108Z,6.50
2023-03-01T12:00:18.503Z,5.73
2023-03-01T12:03:08.023Z,3.80
2023-03-01T12:05:46.634Z,4.30
2023-03-01T12:08:23.046Z,3.60
2023-03-01T12:10:57.954Z,3.70
2023-03-01T12:13:42.823Z,4.07
2023-03-01T12:16:37.597Z,3.43
2023-03-01T12:19:12.471Z,3.77
2023-03-01T12:21:57.304Z,4.03
2023-03-01T12:24:42.174Z,3.87
2023-03-01T12:27:19.811Z,3.73
2023-03-01T12:30:16.223Z,3.67
2023-03-01T12:32:45.208Z,3.50
2023-03-01T12:35:21.792Z,3.33
2023-03-01T12:38:02.632Z,3.60
2023-03-01T12:40:52.562Z,3.90
2023-03-01T12:43:24.558Z,3.53
2023-03-01T12:46:04.530Z,3.80
2023-03-01T12:48:30.763Z,3.70
2023-03-01T12:51:00.444Z,3.60
2023-03-01T12:53:28.723Z,4.10
2023-03-01T12:55:56.414Z,4.23
2023-03-01T12:58:49.588Z,3.57
2023-03-01T13:01:16.681Z,3.83
2023-03-01T13:04:00.961Z,4.07
2023-03-01T13:06:42.500Z,3.70
2023-03-01T13:09:18.620Z,3.80
2023-03-01T13:11:45.286Z,4.13
2023-03-01T13:14:23.873Z,4.17
2023-03-01T13:16:50.879Z,3.50
2023-03-01T13:19:21.986Z,3.33
2023-03-01T13:21:49.479Z,3.53
2023-03-01T13:24:26.405Z,3.37
2023-03-01T13:27:08.082Z,3.23
2023-03-01T13:29:45.010Z,3.40
2023-03-01T13:32:41.799Z,3.60
2023-03-01T13:35:30.326Z,3.43
2023-03-01T13:38:16.721Z,3.50
2023-03-01T13:40:52.571Z,3.40
2023-03-01T13:43:32.924Z,3.30
2023-03-01T13:46:00.310Z,3.50
2023-03-01T13:48:28.595Z,3.40
2023-03-01T13:51:06.065Z,3.17
2023-03-01T13:53:34.598Z,3.57
2023-03-01T13:56:03.667Z,3.47
2023-03-01T13:58:34.279Z,3.60
2023-03-01T14:01:08.132Z,4.17
2023-03-01T14:03:40.755Z,3.23
2023-03-01T14:06:16.349Z,3.03
2023-03-01T14:08:44.852Z,3.70
2023-03-01T14:11:29.750Z,3.77
2023-03-01T14:14:16.262Z,3.50
2023-03-01T14:16:50.793Z,3.37
2023-03-01T14:19:31.105Z,3.13
2023-03-01T14:22:05.275Z,3.10
2023-03-01T14:24:33.826Z,3.23
2023-03-01T14:27:01.772Z,4.07
2023-03-01T14:29:36.467Z,3.50
2023-03-01T14:32:13.713Z,2.73
2023-03-01T14:34:43.904Z,2.90
2023-03-01T14:37:19.803Z,3.27
2023-03-01T14:39:46.220Z,3.17
2023-03-01T14:42:15.742Z,3.20
2023-03-01T14:44:47.610Z,3.30
2023-03-01T14:47:16.956Z,2.83
2023-03-01T14:49:44.218Z,2.70
2023-03-01T14:52:22.381Z,2.40
2023-03-01T14:54:50.301Z,3.07
2023-03-01T14:57:17.523Z,2.80
2023-03-01T14:59:44.341Z,2.67
2023-03-01T15:02:17.943Z,2.50
2023-03-01T15:04:46.286Z,2.83
2023-03-01T15:07:13.703Z,2.80
2023-03-01T15:09:40.593Z,2.77
2023-03-01T15:12:45.487Z,2.50
2023-03-01T15:15:43.957Z,2.47
2023-03-01T15:18:29.537Z,2.43
2023-03-01T15:20:56.628Z,2.57
2023-03-01T15:23:25.058Z,2.60
2023-03-01T15:25:57.366Z,2.27
2023-03-01T15:28:26.439Z,2.50
2023-03-01T15:30:54.885Z,3.03
2023-03-01T15:33:29.612Z,2.40
2023-03-01T15:35:56.952Z,2.70
2023-03-01T15:38:28.257Z,3.13
2023-03-01T15:40:54.904Z,2.40
2023-03-01T15:43:39.808Z,3.00
2023-03-01T15:46:06.132Z,2.53
2023-03-01T15:48:33.244Z,2.97
2023-03-01T15:51:00.043Z,2.90
2023-03-01T15:53:27.999Z,3.20
2023-03-01T15:55:54.289Z,3.13
2023-03-01T15:58:22.119Z,3.10
2023-03-01T16:01:00.418Z,2.87
2023-03-01T16:03:28.090Z,3.03
2023-03-01T16:05:54.641Z,3.43
2023-03-01T16:08:20.958Z,2.93
2023-03-01T16:10:47.306Z,3.17
2023-03-01T16:13:14.732Z,3.97
2023-03-01T16:15:41.263Z,3.67
2023-03-01T16:18:08.894Z,3.60
2023-03-01T16:20:35.417Z,3.07
2023-03-01T16:23:06.473Z,3.17
2023-03-01T16:25:33.296Z,3.43
2023-03-01T16:28:01.807Z,3.57
2023-03-01T16:30:28.218Z,3.30
2023-03-01T16:32:54.495Z,3.63
2023-03-01T16:35:22.450Z,3.20
2023-03-01T16:37:49.009Z,3.27
2023-03-01T16:40:26.926Z,3.47
2023-03-01T16:42:53.373Z,3.67
2023-03-01T16:45:26.470Z,3.53
2023-03-01T16:47:55.850Z,3.97
2023-03-01T16:50:22.655Z,3.87
2023-03-01T16:52:48.970Z,3.83
2023-03-01T16:55:15.202Z,4.20
2023-03-01T16:57:41.707Z,4.47
2023-03-01T17:00:12.029Z,3.83
2023-03-01T17:02:38.654Z,4.20
2023-03-01T17:05:05.251Z,4.13
2023-03-01T17:07:35.192Z,4.00
2023-03-01T17:10:01.989Z,5.17
2023-03-01T17:12:28.827Z,4.77
2023-03-01T17:14:55.070Z,4.40
2023-03-01T17:17:21.467Z,3.73
2023-03-01T17:19:47.974Z,4.33
2023-03-01T17:22:14.464Z,4.23
2023-03-01T17:24:41.147Z,4.30
2023-03-01T17:27:08.107Z,3.73
2023-03-01T17:29:34.923Z,4.23
2023-03-01T17:32:01.787Z,5.27
2023-03-01T17:34:28.144Z,5.13
2023-03-01T17:36:54.781Z,5.03
2023-03-01T17:39:25.699Z,5.50
2023-03-01T17:41:52.489Z,5.47
2023-03-01T17:44:18.752Z,5.13
2023-03-01T17:46:45.046Z,4.50
2023-03-01T17:49:11.350Z,4.70
2023-03-01T17:51:38.562Z,4.97
2023-03-01T17:54:05.219Z,5.37
2023-03-01T17:56:33.798Z,5.23
2023-03-01T17:59:00.595Z,5.47
2023-03-01T18:01:26.972Z,5.67
2023-03-01T18:03:53.702Z,5.37
2023-03-01T18:06:21.654Z,5.30
2023-03-01T18:08:48.752Z,5.50
2023-03-01T18:11:15.035Z,5.20
2023-03-01T18:13:41.612Z,5.50
2023-03-01T18:16:09.255Z,4.97
2023-03-01T18:18:35.639Z,5.50
2023-03-01T18:21:02.343Z,5.17
2023-03-01T18:23:29.290Z,4.93
2023-03-01T18:25:59.498Z,5.37
2023-03-01T18:28:25.964Z,5.77
2023-03-01T18:30:56.246Z,5.60
2023-03-01T18:33:22.588Z,5.30
2023-03-01T18:35:49.944Z,7.10
2023-03-01T18:38:16.456Z,6.43
2023-03-01T18:40:43.469Z,6.10
2023-03-01T18:43:09.707Z,7.57
2023-03-01T18:45:36.102Z,7.60
2023-03-01T18:48:02.542Z,7.33
2023-03-01T18:50:29.418Z,7.00
2023-03-01T18:52:55.757Z,7.40
2023-03-01T18:55:21.983Z,7.03
2023-03-01T18:57:48.205Z,7.07
2023-03-01T19:00:14.664Z,7.20
2023-03-01T19:02:40.971Z,5.90
2023-03-01T19:05:07.566Z,6.70
2023-03-01T19:07:34.187Z,6.33
2023-03-01T19:10:00.438Z,6.10
2023-03-01T19:12:28.195Z,6.87
2023-03-01T19:14:54.452Z,7.13
2023-03-01T19:17:30.908Z,6.87
2023-03-01T19:19:57.682Z,7.30
2023-03-01T19:22:24.504Z,7.87
2023-03-01T19:24:51.030Z,7.53
2023-03-01T19:27:17.314Z,7.50
2023-03-01T19:29:43.569Z,7.87
2023-03-01T19:32:10.012Z,7.43
2023-03-01T19:34:38.271Z,8.03
2023-03-01T19:37:04.561Z,8.37
2023-03-01T19:39:30.822Z,7.93
2023-03-01T19:41:57.141Z,8.37
2023-03-01T19:44:24.947Z,8.77
2023-03-01T19:46:52.163Z,8.13
2023-03-01T19:49:18.507Z,8.33
2023-03-01T19:51:44.996Z,8.03
2023-03-01T19:54:12.334Z,9.23
2023-03-01T19:56:38.929Z,8.23
2023-03-01T19:59:06.420Z,8.90
2023-03-01T20:01:34.417Z,9.20
2023-03-01T20:04:01.266Z,8.83
2023-03-01T20:06:29.779Z,8.73
2023-03-01T20:08:56.296Z,8.70
2023-03-01T20:11:22.594Z,9.57
2023-03-01T20:13:48.899Z,9.40
2023-03-01T20:16:15.997Z,9.97
2023-03-01T20:18:42.788Z,10.57
2023-03-01T20:21:21.472Z,10.17
2023-03-01T20:23:49.741Z,10.53
2023-03-01T20:26:19.185Z,11.03
2023-03-01T20:28:46.805Z,10.23
2023-03-01T20:31:13.774Z,10.23
2023-03-01T20:33:40.261Z,10.43
2023-03-01T20:36:07.376Z,9.67
2023-03-01T20:38:34.315Z,10.10
2023-03-01T20:41:01.321Z,11.13
2023-03-01T20:43:28.083Z,10.27
2023-03-01T20:45:55.768Z,10.90
2023-03-01T20:48:22.297Z,10.60
2023-03-01T20:50:48.594Z,10.53
2023-03-01T20:53:15.057Z,13.13
2023-03-01T20:55:41.307Z,12.47
2023-03-01T20:58:07.520Z,11.80
2023-03-01T21:00:33.876Z,11.87
2023-03-01T21:03:00.186Z,12.27
2023-03-01T21:05:26.477Z,12.33
2023-03-01T21:07:52.785Z,12.23
2023-03-01T21:10:19.254Z,12.13
2023-03-01T21:12:45.514Z,12.43
2023-03-01T21:15:23.518Z,12.97
2023-03-01T21:17:54.510Z,11.47
2023-03-01T21:20:20.781Z,11.90
2023-03-01T21:22:47.073Z,12.47
2023-03-01T21:25:13.383Z,12.63
2023-03-01T21:27:39.604Z,13.50
2023-03-01T21:30:06.102Z,12.83
2023-03-01T21:32:32.390Z,13.70
2023-03-01T21:34:59.469Z,14.27
2023-03-01T21:37:28.661Z,13.47
2023-03-01T21:39:54.885Z,12.90
2023-03-01T21:42:21.125Z,12.83
2023-03-01T21:44:47.430Z,12.90
2023-03-01T21:47:13.685Z,12.27
2023-03-01T21:49:39.998Z,12.47
2023-03-01T21:52:06.290Z,11.97
2023-03-01T21:54:34.131Z,14.17
2023-03-01T21:57:00.495Z,14.27
2023-03-01T21:59:28.177Z,14.83
2023-03-01T22:01:54.417Z,12.93
2023-03-01T22:04:22.464Z,13.93
2023-03-01T22:06:54.253Z,13.67
2023-03-01T22:09:21.982Z,13.77
2023-03-01T22:11:49.493Z,13.17
2023-03-01T22:14:16.484Z,13.57
2023-03-01T22:16:45.769Z,12.60
2023-03-01T22:19:13.332Z,12.83
2023-03-01T22:21:40.557Z,12.07
2023-03-01T22:24:07.356Z,12.17
2023-03-01T22:26:35.523Z,12.03
2023-03-01T22:29:02.794Z,11.83
2023-03-01T22:31:29.300Z,11.97
2023-03-01T22:33:56.004Z,11.37
2023-03-01T22:36:22.479Z,11.23
2023-03-01T22:38:49.049Z,11.67
2023-03-01T22:41:15.372Z,11.20
2023-03-01T22:43:41.641Z,10.80
2023-03-01T22:46:15.791Z,12.50
2023-03-01T22:48:42.262Z,12.00
2023-03-01T22:51:13.185Z,11.67
2023-03-01T22:53:39.459Z,11.70
2023-03-01T22:56:15.598Z,10.83
2023-03-01T22:58:42.295Z,11.57
2023-03-01T23:01:09.453Z,11.33
2023-03-01T23:03:35.678Z,11.03
2023-03-01T23:06:01.966Z,11.60
2023-03-01T23:08:28.346Z,11.70
2023-03-01T23:10:54.619Z,11.13
2023-03-01T23:13:20.853Z,11.27
2023-03-01T23:15:52.293Z,11.63
2023-03-01T23:18:18.515Z,10.53
2023-03-01T23:20:44.752Z,11.00
2023-03-01T23:23:10.966Z,11.00
2023-03-01T23:25:37.209Z,11.30
2023-03-01T23:28:03.789Z,10.77
2023-03-01T23:30:30.124Z,10.10
2023-03-01T23:32:56.856Z,11.50
2023-03-01T23:35:23.128Z,10.93
2023-03-01T23:37:49.457Z,11.00
2023-03-01T23:40:16.965Z,11.10
2023-03-01T23:42:43.207Z,10.67
2023-03-01T23:45:09.674Z,11.37
2023-03-01T23:47:36.172Z,10.63
2023-03-01T23:50:02.857Z,10.67
2023-03-01T23:52:29.281Z,12.00
2023-03-01T23:54:55.521Z,11.70
2023-03-01T23:57:21.749Z,11.90
2023-03-01T23:59:47.989Z,11.60
